Time;durP1;ratioP1;P1;durP2;ratioP2;P2;SDS_P1;SDS_P2;PMS_P1;PMS_P2;Temp;Humidity;BMP_temperature;BMP_pressure;BME280_temperature;BME280_humidity;BME280_pressure;Samples;Min_cycle;Max_cycle;Signal;HPM_P1;HPM_P2
2022/05/05 00:01:04;;;;;;;;;;;21.70;56.60;;;;;;4985879;28;19914;-70
2022/05/05 00:03:29;;;;;;;;;;;21.70;56.50;;;;;;4985831;28;19928;-69
2022/05/05 00:05:54;;;;;;;;;;;21.70;56.60;;;;;;4986280;28;19918;-70
2022/05/05 00:08:20;;;;;;;;;;;21.70;56.60;;;;;;4985148;28;19957;-70
2022/05/05 00:16:13;;;;;;;;;;;21.70;56.50;;;;;;4986707;28;19949;-69
2022/05/05 00:18:39;;;;;;;;;;;21.70;56.50;;;;;;4986429;28;19914;-70
2022/05/05 00:21:04;;;;;;;;;;;21.70;56.50;;;;;;4986863;28;19920;-70
2022/05/05 00:23:30;;;;;;;;;;;21.70;56.50;;;;;;4987304;28;20435;-70
2022/05/05 00:25:55;;;;;;;;;;;21.70;56.50;;;;;;4987467;28;19917;-70
2022/05/05 00:28:21;;;;;;;;;;;21.70;56.50;;;;;;4986103;28;19917;-70
2022/05/05 00:30:46;;;;;;;;;;;21.70;56.50;;;;;;4985608;28;19918;-70
2022/05/05 00:33:12;;;;;;;;;;;21.70;56.50;;;;;;4986691;28;19918;-70
2022/05/05 00:35:37;;;;;;;;;;;21.70;56.50;;;;;;4987511;28;20404;-70
2022/05/05 00:38:03;;;;;;;;;;;21.70;56.50;;;;;;4986165;28;19921;-70
2022/05/05 00:40:29;;;;;;;;;;;21.70;56.50;;;;;;4984592;28;19918;-71
2022/05/05 00:42:54;;;;;;;;;;;21.70;56.50;;;;;;4985204;28;19925;-71
2022/05/05 00:45:20;;;;;;;;;;;21.70;56.50;;;;;;4986640;28;19924;-70
2022/05/05 00:47:45;;;;;;;;;;;21.70;56.50;;;;;;4986448;28;19921;-70
2022/05/05 00:50:11;;;;;;;;;;;21.70;56.50;;;;;;4983678;28;19914;-71
2022/05/05 00:52:36;;;;;;;;;;;21.70;56.50;;;;;;4986277;28;20304;-70
2022/05/05 00:55:02;;;;;;;;;;;21.70;56.50;;;;;;4985426;28;19971;-70
2022/05/05 00:57:27;;;;;;;;;;;21.70;56.50;;;;;;4986282;28;19918;-70
2022/05/05 00:59:53;;;;;;;;;;;21.70;56.50;;;;;;4985685;28;20328;-70
2022/05/05 01:02:18;;;;;;;;;;;21.70;56.50;;;;;;4986475;28;20381;-71
2022/05/05 01:04:46;;;;;;;;;;;21.70;56.50;;;;;;4984606;28;19925;-71
2022/05/05 01:07:13;;;;;;;;;;;21.70;56.50;;;;;;4985983;28;20431;-71
2022/05/05 01:09:39;;;;;;;;;;;21.70;56.50;;;;;;4985979;28;19918;-71
2022/05/05 04:39:50;;;;;;;;;;;21.60;57.40;;;;;;4957347;28;19960;-70
2022/05/05 04:42:15;;;;;;;;;;;21.60;57.90;;;;;;4939074;28;19922;-70
2022/05/05 04:44:41;;;;;;;;;;;21.60;57.80;;;;;;4995113;28;20452;-70
2022/05/05 04:47:06;;;;;;;;;;;21.60;57.70;;;;;;4987855;28;19953;-68
2022/05/05 04:49:32;;;;;;;;;;;21.60;57.50;;;;;;4986221;28;19965;-70
2022/05/05 04:51:57;;;;;;;;;;;21.60;57.40;;;;;;4985547;28;20297;-69
2022/05/05 04:54:22;;;;;;;;;;;21.60;57.30;;;;;;4986664;28;19924;-70
2022/05/05 04:56:48;;;;;;;;;;;21.50;57.20;;;;;;4987415;28;19965;-69
2022/05/05 04:59:13;;;;;;;;;;;21.60;57.70;;;;;;4984079;28;19914;-67
2022/05/05 05:01:39;;;;;;;;;;;21.50;57.50;;;;;;4986941;28;19914;-70
2022/05/05 05:04:06;;;;;;;;;;;21.60;57.40;;;;;;4987305;28;20381;-71
2022/05/05 05:06:31;;;;;;;;;;;21.50;57.20;;;;;;4987355;28;19914;-70
2022/05/05 05:08:57;;;;;;;;;;;21.50;57.20;;;;;;4986244;28;19914;-70
2022/05/05 05:11:23;;;;;;;;;;;21.50;57.40;;;;;;4987368;28;19918;-69
2022/05/05 05:13:48;;;;;;;;;;;21.50;57.40;;;;;;4986224;28;19929;-68
2022/05/05 05:16:14;;;;;;;;;;;21.50;57.30;;;;;;4983683;28;19977;-65
2022/05/05 05:18:42;;;;;;;;;;;21.50;57.20;;;;;;4983499;28;20381;-70
2022/05/05 05:21:07;;;;;;;;;;;21.50;57.20;;;;;;4984041;28;20521;-72
2022/05/05 05:23:33;;;;;;;;;;;21.50;57.40;;;;;;4986540;28;19929;-71
2022/05/05 05:25:58;;;;;;;;;;;21.50;57.40;;;;;;4985465;28;20312;-69
2022/05/05 05:28:24;;;;;;;;;;;21.50;57.30;;;;;;4983318;28;20004;-69
2022/05/05 05:30:49;;;;;;;;;;;21.50;57.30;;;;;;4987298;28;19913;-69
2022/05/05 05:33:15;;;;;;;;;;;21.50;57.40;;;;;;4989412;28;19914;-67
2022/05/05 05:35:40;;;;;;;;;;;21.50;57.80;;;;;;4985305;28;20554;-70
2022/05/05 05:38:06;;;;;;;;;;;21.50;59.00;;;;;;4987422;28;19924;-69
2022/05/05 05:40:31;;;;;;;;;;;21.50;59.50;;;;;;4986126;28;20013;-68
2022/05/05 05:42:57;;;;;;;;;;;21.50;59.60;;;;;;4984551;28;19922;-68
2022/05/05 05:45:22;;;;;;;;;;;21.60;59.90;;;;;;4986838;28;20377;-68
2022/05/05 05:47:48;;;;;;;;;;;21.50;60.00;;;;;;4986946;28;19914;-68
2022/05/05 05:50:13;;;;;;;;;;;21.60;60.10;;;;;;4985119;28;19917;-70
2022/05/05 05:52:39;;;;;;;;;;;21.50;60.20;;;;;;4984509;28;19914;-66
2022/05/05 05:55:04;;;;;;;;;;;21.60;60.50;;;;;;4983333;28;19914;-69
2022/05/05 05:57:30;;;;;;;;;;;21.60;60.60;;;;;;4983200;28;19979;-66
2022/05/05 05:59:55;;;;;;;;;;;21.60;60.60;;;;;;4982600;28;19925;-66
2022/05/05 06:05:06;;;;;;;;;;;21.60;59.80;;;;;;4983608;28;19986;-67
2022/05/05 06:07:31;;;;;;;;;;;21.60;59.50;;;;;;4984069;28;19917;-70
2022/05/05 06:09:57;;;;;;;;;;;21.60;59.40;;;;;;4982468;28;20377;-69
2022/05/05 06:12:22;;;;;;;;;;;21.60;59.40;;;;;;4983871;28;19922;-71
2022/05/05 06:14:48;;;;;;;;;;;21.60;59.90;;;;;;4981843;28;19922;-67
2022/05/05 06:17:13;;;;;;;;;;;21.60;59.40;;;;;;4983808;28;19944;-71
2022/05/05 06:19:39;;;;;;;;;;;21.60;59.20;;;;;;4982741;28;20305;-70
2022/05/05 06:22:04;;;;;;;;;;;21.50;58.90;;;;;;4992921;23;19926;-58
2022/05/05 06:24:30;;;;;;;;;;;21.50;58.80;;;;;;4992074;28;19922;-58
2022/05/05 06:26:55;;;;;;;;;;;21.50;58.70;;;;;;4966526;28;19929;-57
2022/05/05 06:29:21;;;;;;;;;;;21.50;58.50;;;;;;4979640;28;20389;-58
2022/05/05 06:31:47;;;;;;;;;;;21.50;58.10;;;;;;4980003;28;19924;-59
2022/05/05 06:34:12;;;;;;;;;;;21.50;57.80;;;;;;4978893;28;19918;-58
2022/05/05 06:36:37;;;;;;;;;;;21.50;57.60;;;;;;4977738;28;19917;-57
2022/05/05 06:39:03;;;;;;;;;;;21.50;57.30;;;;;;4959282;28;19964;-58
2022/05/05 06:41:28;;;;;;;;;;;21.50;57.00;;;;;;4960166;28;20268;-59
2022/05/05 06:43:54;;;;;;;;;;;21.40;56.60;;;;;;4979871;28;19918;-58
2022/05/05 06:46:19;;;;;;;;;;;21.50;56.30;;;;;;4978920;28;20394;-57
2022/05/05 06:48:45;;;;;;;;;;;21.50;56.40;;;;;;4961014;28;19921;-57
2022/05/05 06:51:10;;;;;;;;;;;21.50;56.30;;;;;;4959551;28;20375;-57
2022/05/05 06:53:36;;;;;;;;;;;21.50;56.50;;;;;;4976299;28;19914;-56
2022/05/05 06:56:01;;;;;;;;;;;21.60;56.90;;;;;;4978289;28;20032;-59
2022/05/05 06:58:27;;;;;;;;;;;21.70;57.10;;;;;;4979095;28;20075;-57
2022/05/05 07:03:36;;;;;;;;;;;21.60;57.20;;;;;;4981341;28;20422;-57
2022/05/05 07:06:02;;;;;;;;;;;21.60;57.30;;;;;;4997135;28;20396;-58
2022/05/05 07:08:28;;;;;;;;;;;21.60;57.30;;;;;;4998707;28;20532;-58
2022/05/05 07:10:53;;;;;;;;;;;21.50;57.40;;;;;;4998382;28;19949;-58
2022/05/05 07:13:22;;;;;;;;;;;21.50;57.60;;;;;;5000223;28;19918;-56
2022/05/05 07:15:47;;;;;;;;;;;21.50;57.70;;;;;;4999601;28;19960;-57
2022/05/05 07:18:12;;;;;;;;;;;21.50;57.70;;;;;;4999355;28;19918;-60
2022/05/05 07:20:38;;;;;;;;;;;21.50;57.80;;;;;;4998546;28;19922;-59
2022/05/05 07:23:05;;;;;;;;;;;21.60;57.80;;;;;;4999017;28;20295;-60
2022/05/05 07:25:30;;;;;;;;;;;21.60;58.00;;;;;;4999930;28;19914;-58
2022/05/05 07:27:55;;;;;;;;;;;21.60;58.00;;;;;;4999928;28;19913;-57
2022/05/05 07:30:22;;;;;;;;;;;21.50;57.80;;;;;;4998158;28;19983;-60
2022/05/05 07:32:47;;;;;;;;;;;21.50;57.80;;;;;;4999829;28;19927;-60
2022/05/05 07:35:13;;;;;;;;;;;21.50;57.70;;;;;;5014966;28;19917;-58
2022/05/05 07:37:39;;;;;;;;;;;21.50;57.60;;;;;;5013873;28;19948;-60
2022/05/05 07:40:13;;;;;;;;;;;21.50;57.60;;;;;;4998785;28;19937;-59
2022/05/05 07:42:41;;;;;;;;;;;21.50;57.50;;;;;;4976774;28;20318;-61
2022/05/05 07:45:07;;;;;;;;;;;21.50;57.60;;;;;;4976382;28;19953;-58
2022/05/05 07:47:33;;;;;;;;;;;21.50;57.70;;;;;;4981385;28;20319;-60
2022/05/05 07:49:59;;;;;;;;;;;21.50;57.60;;;;;;4979579;28;19918;-60
2022/05/05 07:52:25;;;;;;;;;;;21.50;57.60;;;;;;4982706;28;20382;-59
2022/05/05 07:54:50;;;;;;;;;;;21.50;57.60;;;;;;4982645;28;19929;-56
2022/05/05 07:57:17;;;;;;;;;;;21.50;57.60;;;;;;4982286;28;20360;-59
2022/05/05 07:59:44;;;;;;;;;;;21.50;57.50;;;;;;4980113;28;20181;-59
2022/05/05 08:02:13;;;;;;;;;;;21.50;57.50;;;;;;4982832;28;19984;-57
2022/05/05 08:04:39;;;;;;;;;;;21.50;57.40;;;;;;4982575;28;20341;-58
2022/05/05 08:07:05;;;;;;;;;;;21.50;57.40;;;;;;4982448;28;19949;-58
2022/05/05 08:09:30;;;;;;;;;;;21.50;57.40;;;;;;4986098;28;19914;-59
2022/05/05 08:15:01;;;;;;;;;;;21.50;58.00;;;;;;4979427;28;19921;-58
2022/05/05 08:17:26;;;;;;;;;;;21.50;57.40;;;;;;4982497;28;20049;-58
2022/05/05 08:19:52;;;;;;;;;;;21.50;57.30;;;;;;4979180;28;19918;-58
2022/05/05 08:22:18;;;;;;;;;;;21.50;57.30;;;;;;4981557;28;19952;-58
2022/05/05 08:30:12;;;;;;;;;;;21.50;57.20;;;;;;4983009;28;19924;-58
2022/05/05 08:32:37;;;;;;;;;;;21.50;57.20;;;;;;4981684;28;19917;-57
2022/05/05 08:35:03;;;;;;;;;;;21.50;57.20;;;;;;4983456;28;20043;-58
2022/05/05 08:37:28;;;;;;;;;;;21.50;57.20;;;;;;5013718;28;19917;-59
2022/05/05 08:39:54;;;;;;;;;;;21.50;57.20;;;;;;4981606;28;19921;-58
2022/05/05 08:42:19;;;;;;;;;;;21.50;57.20;;;;;;4980096;28;19914;-58
2022/05/05 08:44:45;;;;;;;;;;;21.50;57.20;;;;;;4981235;28;19930;-58
2022/05/05 08:47:11;;;;;;;;;;;21.50;57.20;;;;;;4981468;28;19914;-58
2022/05/05 08:49:37;;;;;;;;;;;21.50;57.20;;;;;;4994372;28;20310;-58
2022/05/05 08:52:03;;;;;;;;;;;21.50;57.20;;;;;;5000277;28;19928;-57
2022/05/05 08:54:29;;;;;;;;;;;21.50;57.20;;;;;;4981808;28;19957;-57
2022/05/05 08:56:55;;;;;;;;;;;21.50;57.20;;;;;;4980293;28;20415;-60
2022/05/05 08:59:21;;;;;;;;;;;21.50;57.20;;;;;;4969412;28;20150;-60
2022/05/05 09:01:47;;;;;;;;;;;21.50;57.20;;;;;;4981392;28;19992;-59
2022/05/05 09:04:12;;;;;;;;;;;21.50;57.10;;;;;;4970880;28;19921;-60
2022/05/05 09:06:46;;;;;;;;;;;21.40;57.10;;;;;;4982513;28;19940;-59
2022/05/05 09:09:27;;;;;;;;;;;21.50;57.10;;;;;;4980788;28;19948;-56
2022/05/05 09:12:06;;;;;;;;;;;21.50;57.10;;;;;;4977938;28;19913;-56
2022/05/05 09:14:50;;;;;;;;;;;21.50;57.10;;;;;;4988805;28;20564;-57
2022/05/05 09:17:19;;;;;;;;;;;21.50;57.10;;;;;;4981086;28;20004;-58
2022/05/05 09:19:46;;;;;;;;;;;21.50;57.10;;;;;;4978638;28;20379;-56
2022/05/05 09:22:12;;;;;;;;;;;21.50;57.10;;;;;;4978711;28;20324;-58
2022/05/05 09:24:41;;;;;;;;;;;21.50;57.10;;;;;;4996034;28;19929;-55
2022/05/05 09:27:15;;;;;;;;;;;21.50;57.00;;;;;;4981924;28;19918;-56
2022/05/05 09:29:41;;;;;;;;;;;21.50;57.00;;;;;;4980023;28;20295;-57
2022/05/05 09:32:10;;;;;;;;;;;21.50;57.70;;;;;;4981486;28;20153;-56
2022/05/05 09:34:36;;;;;;;;;;;21.50;57.10;;;;;;4972043;28;19925;-57
2022/05/05 09:37:30;;;;;;;;;;;21.50;57.10;;;;;;4982088;28;20004;-57
2022/05/05 09:39:56;;;;;;;;;;;21.50;57.00;;;;;;4969480;28;19917;-57
2022/05/05 09:42:38;;;;;;;;;;;21.50;57.00;;;;;;4980357;28;19918;-57
2022/05/05 09:45:16;;;;;;;;;;;21.50;57.00;;;;;;4980830;28;20308;-56
2022/05/05 09:47:42;;;;;;;;;;;21.40;57.00;;;;;;4970403;28;19993;-59
2022/05/05 09:50:08;;;;;;;;;;;21.50;57.00;;;;;;4980649;28;19918;-57
2022/05/05 09:58:03;;;;;;;;;;;21.50;57.00;;;;;;4960274;28;20415;-57
2022/05/05 10:05:48;;;;;;;;;;;21.50;57.10;;;;;;4982486;28;19925;-57
2022/05/05 10:08:14;;;;;;;;;;;21.50;57.00;;;;;;4966516;28;19967;-58
2022/05/05 10:10:40;;;;;;;;;;;21.50;56.90;;;;;;4976374;28;19918;-58
2022/05/05 10:13:07;;;;;;;;;;;21.50;57.00;;;;;;4969306;28;20214;-58
2022/05/05 10:15:32;;;;;;;;;;;21.50;56.80;;;;;;4992623;28;19929;-57
2022/05/05 10:17:59;;;;;;;;;;;21.50;56.90;;;;;;4966388;28;20383;-56
2022/05/05 10:20:25;;;;;;;;;;;21.50;56.90;;;;;;4963978;28;19922;-57
2022/05/05 10:22:53;;;;;;;;;;;21.50;56.80;;;;;;4964840;28;19933;-56
2022/05/05 10:25:22;;;;;;;;;;;21.50;56.80;;;;;;4987073;28;19925;-56
2022/05/05 10:27:48;;;;;;;;;;;21.60;56.80;;;;;;4964873;28;19941;-57
2022/05/05 10:30:16;;;;;;;;;;;21.60;56.80;;;;;;4978136;28;19918;-63
2022/05/05 10:32:42;;;;;;;;;;;21.60;57.10;;;;;;4961267;28;19922;-56
2022/05/05 10:35:08;;;;;;;;;;;21.50;56.80;;;;;;4962146;28;20065;-58
2022/05/05 10:37:36;;;;;;;;;;;21.60;56.80;;;;;;4977536;28;19914;-57
2022/05/05 10:40:03;;;;;;;;;;;21.50;56.80;;;;;;4965356;28;19929;-60
2022/05/05 10:42:38;;;;;;;;;;;21.50;56.80;;;;;;4981108;28;19921;-58
2022/05/05 10:45:16;;;;;;;;;;;21.50;56.80;;;;;;4979746;28;19925;-56
2022/05/05 10:47:58;;;;;;;;;;;21.50;56.80;;;;;;4981684;28;19913;-57
2022/05/05 10:50:27;;;;;;;;;;;21.50;56.80;;;;;;4978899;28;19917;-55
2022/05/05 10:52:53;;;;;;;;;;;21.50;56.80;;;;;;4967535;28;19914;-57
2022/05/05 10:55:31;;;;;;;;;;;21.50;56.80;;;;;;4993735;28;19918;-57
2022/05/05 10:57:57;;;;;;;;;;;21.60;56.90;;;;;;4948391;28;19949;-57
2022/05/05 11:00:23;;;;;;;;;;;21.50;56.90;;;;;;4957375;28;19918;-57
2022/05/05 11:02:57;;;;;;;;;;;21.50;56.80;;;;;;4963730;28;19925;-57
2022/05/05 11:05:27;;;;;;;;;;;21.60;57.00;;;;;;5001739;28;19925;-57
2022/05/05 11:07:53;;;;;;;;;;;21.60;57.00;;;;;;4983563;28;19914;-56
2022/05/05 11:10:37;;;;;;;;;;;21.60;57.10;;;;;;4977258;28;20449;-57
2022/05/05 11:13:02;;;;;;;;;;;21.60;56.80;;;;;;4967553;28;19957;-58
2022/05/05 11:21:32;;;;;;;;;;;21.60;56.90;;;;;;4989389;28;20136;-55
2022/05/05 11:23:57;;;;;;;;;;;21.60;57.00;;;;;;5006057;28;19917;-55
2022/05/05 11:26:23;;;;;;;;;;;21.60;56.90;;;;;;5001966;28;19921;-58
2022/05/05 11:28:48;;;;;;;;;;;21.60;56.80;;;;;;4988658;28;20009;-57
2022/05/05 11:31:19;;;;;;;;;;;21.60;56.90;;;;;;5001430;28;19975;-58
2022/05/05 11:33:47;;;;;;;;;;;21.60;56.80;;;;;;4971441;28;19976;-55
2022/05/05 11:36:13;;;;;;;;;;;21.60;56.80;;;;;;4990774;28;20330;-58
2022/05/05 11:38:40;;;;;;;;;;;21.60;56.90;;;;;;5005213;28;19917;-56
2022/05/05 11:41:06;;;;;;;;;;;21.60;57.00;;;;;;5010906;28;19972;-56
2022/05/05 11:46:16;;;;;;;;;;;21.60;56.80;;;;;;5009027;28;19920;-56
2022/05/05 11:48:43;;;;;;;;;;;21.60;56.90;;;;;;4986118;28;20102;-58
2022/05/05 11:51:08;;;;;;;;;;;21.60;57.00;;;;;;5002435;28;19914;-57
2022/05/05 11:53:35;;;;;;;;;;;21.60;56.80;;;;;;4981549;28;19980;-58
2022/05/05 11:56:00;;;;;;;;;;;21.60;56.70;;;;;;5002149;28;20383;-58
2022/05/05 12:04:00;;;;;;;;;;;21.60;56.70;;;;;;4998167;28;20263;-57
2022/05/05 12:06:25;;;;;;;;;;;21.60;56.80;;;;;;5008871;28;20298;-58
2022/05/05 12:08:51;;;;;;;;;;;21.70;56.90;;;;;;4987408;28;19917;-57
2022/05/05 12:11:16;;;;;;;;;;;21.60;56.80;;;;;;4993606;28;20420;-57
2022/05/05 12:13:42;;;;;;;;;;;21.60;56.70;;;;;;4990681;28;19929;-57
2022/05/05 12:16:09;;;;;;;;;;;21.70;56.80;;;;;;5010165;28;19914;-58
2022/05/05 12:18:48;;;;;;;;;;;21.60;56.80;;;;;;4982747;28;19917;-57
2022/05/05 12:21:18;;;;;;;;;;;21.70;56.60;;;;;;5009234;28;20718;-61
2022/05/05 12:23:44;;;;;;;;;;;21.70;56.70;;;;;;4987973;28;19997;-57
2022/05/05 12:26:09;;;;;;;;;;;21.70;56.60;;;;;;5000552;28;20395;-56
2022/05/05 12:28:48;;;;;;;;;;;21.70;56.70;;;;;;4987659;28;19921;-56
2022/05/05 12:31:21;;;;;;;;;;;21.70;56.60;;;;;;5010045;28;19944;-57
2022/05/05 12:33:47;;;;;;;;;;;21.70;56.60;;;;;;4995819;28;19918;-61
2022/05/05 12:36:13;;;;;;;;;;;21.70;56.60;;;;;;4999758;28;20267;-57
2022/05/05 12:38:39;;;;;;;;;;;21.70;56.60;;;;;;4988149;28;19917;-54
2022/05/05 12:41:05;;;;;;;;;;;21.70;56.60;;;;;;5010698;28;19921;-56
2022/05/05 12:43:31;;;;;;;;;;;21.70;56.80;;;;;;5000654;28;19966;-57
2022/05/05 12:46:00;;;;;;;;;;;21.70;56.60;;;;;;5000617;28;19913;-56
2022/05/05 12:48:25;;;;;;;;;;;21.70;56.60;;;;;;4988175;28;19999;-57
2022/05/05 12:50:53;;;;;;;;;;;21.70;56.60;;;;;;5000220;28;19913;-57
2022/05/05 13:01:39;;;;;;;;;;;21.70;56.60;;;;;;5005907;28;20028;-60
2022/05/05 13:04:06;;;;;;;;;;;21.70;56.70;;;;;;4985655;28;20358;-60
2022/05/05 13:06:32;;;;;;;;;;;21.70;56.70;;;;;;5001210;28;19921;-59
2022/05/05 13:08:57;;;;;;;;;;;21.70;56.70;;;;;;4988009;28;19917;-56
2022/05/05 13:11:22;;;;;;;;;;;21.70;56.70;;;;;;5007360;28;19913;-58
2022/05/05 13:13:48;;;;;;;;;;;21.70;56.70;;;;;;4986480;28;20595;-56
2022/05/05 13:16:14;;;;;;;;;;;21.70;56.70;;;;;;5000862;28;19926;-57
2022/05/05 13:18:39;;;;;;;;;;;21.70;56.70;;;;;;4987002;28;20398;-57
2022/05/05 13:21:05;;;;;;;;;;;21.70;56.60;;;;;;4999245;28;20291;-56
2022/05/05 13:23:30;;;;;;;;;;;21.70;56.70;;;;;;4988942;28;19921;-56
2022/05/05 13:25:56;;;;;;;;;;;21.80;56.80;;;;;;4988959;28;19914;-54
2022/05/05 13:28:21;;;;;;;;;;;21.70;56.60;;;;;;4986477;28;19918;-55
2022/05/05 13:30:46;;;;;;;;;;;21.70;56.60;;;;;;4999047;28;20340;-63
2022/05/05 13:33:12;;;;;;;;;;;21.70;56.60;;;;;;5003173;28;19917;-56
2022/05/05 13:35:38;;;;;;;;;;;21.80;56.70;;;;;;5013050;28;20306;-58
2022/05/05 13:38:03;;;;;;;;;;;21.70;56.60;;;;;;4984948;28;19921;-58
2022/05/05 13:40:29;;;;;;;;;;;21.80;56.70;;;;;;4998375;28;20564;-57
2022/05/05 13:42:55;;;;;;;;;;;21.80;56.80;;;;;;4989263;28;20245;-56
2022/05/05 13:45:20;;;;;;;;;;;21.70;56.60;;;;;;5003932;28;19918;-59
2022/05/05 13:47:46;;;;;;;;;;;21.70;56.60;;;;;;5001537;28;19913;-58
2022/05/05 13:50:11;;;;;;;;;;;21.70;57.00;;;;;;4983761;28;19925;-58
2022/05/05 13:52:38;;;;;;;;;;;21.80;56.70;;;;;;5000762;28;19913;-58
2022/05/05 13:55:04;;;;;;;;;;;21.70;56.70;;;;;;4990685;28;20218;-56
2022/05/05 13:57:30;;;;;;;;;;;21.70;56.70;;;;;;5000752;28;19914;-56
2022/05/05 13:59:56;;;;;;;;;;;21.80;56.70;;;;;;4984113;28;19917;-58
2022/05/05 14:02:22;;;;;;;;;;;21.80;56.80;;;;;;5015396;28;19913;-55
2022/05/05 14:04:47;;;;;;;;;;;21.80;56.80;;;;;;4991823;28;19925;-60
2022/05/05 14:07:13;;;;;;;;;;;21.80;56.90;;;;;;5000188;28;19914;-57
2022/05/05 14:12:22;;;;;;;;;;;21.80;56.60;;;;;;5000198;28;19967;-57
2022/05/05 14:14:48;;;;;;;;;;;21.80;56.60;;;;;;5000456;28;19921;-56
2022/05/05 14:17:13;;;;;;;;;;;21.80;56.70;;;;;;5000736;28;19917;-57
2022/05/05 14:19:40;;;;;;;;;;;21.80;56.70;;;;;;4983730;28;20238;-58
2022/05/05 14:22:06;;;;;;;;;;;21.80;56.60;;;;;;4999572;28;19971;-58
2022/05/05 14:24:31;;;;;;;;;;;21.80;56.60;;;;;;4995057;28;20362;-56
2022/05/05 14:26:59;;;;;;;;;;;21.80;56.60;;;;;;4998179;28;21527;-57
2022/05/05 14:29:25;;;;;;;;;;;21.80;56.70;;;;;;4983456;28;19917;-58
2022/05/05 14:31:50;;;;;;;;;;;21.80;56.60;;;;;;4999204;28;20263;-57
2022/05/05 14:34:16;;;;;;;;;;;21.80;56.60;;;;;;4996658;28;19941;-57
2022/05/05 14:36:41;;;;;;;;;;;21.80;56.60;;;;;;4999608;28;19924;-58
2022/05/05 14:39:07;;;;;;;;;;;21.80;56.60;;;;;;4982728;28;19934;-57
2022/05/05 14:41:33;;;;;;;;;;;21.80;56.60;;;;;;4998297;28;19918;-57
2022/05/05 14:43:58;;;;;;;;;;;21.80;56.60;;;;;;4994141;28;19921;-58
2022/05/05 14:46:25;;;;;;;;;;;21.80;56.60;;;;;;5003400;28;19913;-56
2022/05/05 14:48:50;;;;;;;;;;;21.80;56.60;;;;;;4985369;28;19917;-57
2022/05/05 14:51:16;;;;;;;;;;;21.80;56.60;;;;;;4999616;28;19925;-58
2022/05/05 14:53:42;;;;;;;;;;;21.80;56.60;;;;;;4987147;28;19917;-59
2022/05/05 14:56:08;;;;;;;;;;;21.80;56.60;;;;;;5007412;28;19964;-57
2022/05/05 14:58:33;;;;;;;;;;;21.80;56.60;;;;;;4983170;28;19913;-57
2022/05/05 15:01:00;;;;;;;;;;;21.80;56.60;;;;;;4998748;28;20410;-57
2022/05/05 15:03:25;;;;;;;;;;;21.80;56.60;;;;;;4991315;28;20318;-57
2022/05/05 15:05:51;;;;;;;;;;;21.80;56.60;;;;;;5009250;28;19924;-57
2022/05/05 15:08:17;;;;;;;;;;;21.80;56.50;;;;;;4986309;28;19917;-56
2022/05/05 15:10:43;;;;;;;;;;;21.80;56.30;;;;;;4997550;28;19945;-57
2022/05/05 15:13:10;;;;;;;;;;;21.90;56.50;;;;;;4989445;28;19968;-56
2022/05/05 15:15:35;;;;;;;;;;;21.90;56.60;;;;;;4997808;28;19913;-56
2022/05/05 15:18:01;;;;;;;;;;;21.90;56.60;;;;;;4985749;28;19924;-58
2022/05/05 15:20:27;;;;;;;;;;;21.80;56.50;;;;;;4996524;28;19914;-58
2022/05/05 15:22:55;;;;;;;;;;;21.90;56.60;;;;;;4985118;28;19922;-56
2022/05/05 15:25:20;;;;;;;;;;;21.90;56.60;;;;;;5013173;28;20311;-57
2022/05/05 15:27:46;;;;;;;;;;;21.90;56.60;;;;;;5000774;28;19972;-57
2022/05/05 15:30:11;;;;;;;;;;;21.90;56.60;;;;;;4981921;28;19922;-56
2022/05/05 15:32:37;;;;;;;;;;;21.90;57.20;;;;;;4999620;28;20406;-57
2022/05/05 15:35:03;;;;;;;;;;;21.90;56.60;;;;;;4999577;28;20153;-58
2022/05/05 15:37:29;;;;;;;;;;;21.90;56.60;;;;;;4998598;28;19920;-55
2022/05/05 15:39:54;;;;;;;;;;;21.90;56.50;;;;;;4996055;28;19917;-58
2022/05/05 15:42:20;;;;;;;;;;;21.90;56.50;;;;;;4981761;28;19999;-57
2022/05/05 15:44:45;;;;;;;;;;;21.90;56.60;;;;;;5013691;28;19975;-57
2022/05/05 15:47:11;;;;;;;;;;;21.90;56.60;;;;;;4999050;28;20310;-57
2022/05/05 15:49:36;;;;;;;;;;;21.90;56.50;;;;;;4996112;28;19913;-58
2022/05/05 15:52:02;;;;;;;;;;;21.90;56.50;;;;;;4996616;28;19940;-58
2022/05/05 15:54:28;;;;;;;;;;;21.90;56.50;;;;;;5013512;28;19922;-56
2022/05/05 15:56:53;;;;;;;;;;;21.90;56.50;;;;;;4998402;28;19913;-60
2022/05/05 15:59:18;;;;;;;;;;;21.90;56.50;;;;;;4996111;28;20234;-58
2022/05/05 16:01:45;;;;;;;;;;;21.90;56.60;;;;;;4999469;28;20459;-62
2022/05/05 16:04:10;;;;;;;;;;;21.90;56.50;;;;;;4998314;28;19918;-56
2022/05/05 16:06:36;;;;;;;;;;;21.90;56.50;;;;;;4998727;28;19995;-58
2022/05/05 16:09:01;;;;;;;;;;;21.90;56.50;;;;;;4996458;28;20326;-58
2022/05/05 16:11:27;;;;;;;;;;;21.90;56.40;;;;;;5001532;28;20067;-58
2022/05/05 16:13:52;;;;;;;;;;;21.90;56.40;;;;;;5001755;28;19967;-58
2022/05/05 16:16:18;;;;;;;;;;;21.90;56.40;;;;;;5002304;28;19917;-58
2022/05/05 16:18:43;;;;;;;;;;;21.90;56.50;;;;;;4998244;28;19913;-57
2022/05/05 16:21:09;;;;;;;;;;;21.90;56.50;;;;;;5001459;28;19960;-57
2022/05/05 16:23:34;;;;;;;;;;;21.90;56.40;;;;;;5016284;28;19975;-58
2022/05/05 16:31:28;;;;;;;;;;;21.90;56.40;;;;;;5002116;28;19924;-58
2022/05/05 16:33:53;;;;;;;;;;;21.90;56.40;;;;;;5015407;28;19917;-58
2022/05/05 16:36:19;;;;;;;;;;;21.90;56.40;;;;;;5016343;28;20003;-56
2022/05/05 16:38:45;;;;;;;;;;;21.90;56.40;;;;;;4998748;28;19932;-57
2022/05/05 16:41:10;;;;;;;;;;;21.90;56.40;;;;;;5001566;28;20548;-55
2022/05/05 16:43:36;;;;;;;;;;;21.90;56.30;;;;;;4999699;28;19917;-57
2022/05/05 16:46:01;;;;;;;;;;;21.90;56.30;;;;;;5002114;28;19921;-57
2022/05/05 16:48:27;;;;;;;;;;;21.90;56.40;;;;;;5001277;28;20425;-56
2022/05/05 16:50:52;;;;;;;;;;;21.90;56.30;;;;;;5001019;28;20043;-54
2022/05/05 16:53:18;;;;;;;;;;;21.90;56.30;;;;;;4999694;28;19918;-57
2022/05/05 16:55:43;;;;;;;;;;;21.90;56.30;;;;;;5001723;28;19944;-56
2022/05/05 16:58:09;;;;;;;;;;;21.90;56.30;;;;;;5001143;28;19924;-58
2022/05/05 17:00:34;;;;;;;;;;;21.90;56.30;;;;;;4997856;28;19922;-56
2022/05/05 17:03:00;;;;;;;;;;;21.90;56.30;;;;;;4995569;28;19918;-58
2022/05/05 17:05:25;;;;;;;;;;;21.90;56.30;;;;;;4999083;28;19922;-58
2022/05/05 17:07:51;;;;;;;;;;;21.90;56.30;;;;;;5001159;28;20310;-57
2022/05/05 17:10:20;;;;;;;;;;;21.90;56.30;;;;;;4999141;28;20004;-57
2022/05/05 17:12:46;;;;;;;;;;;21.90;56.30;;;;;;4983046;28;20290;-55
2022/05/05 17:15:11;;;;;;;;;;;21.90;56.30;;;;;;5002478;28;19921;-57
2022/05/05 17:17:37;;;;;;;;;;;21.90;56.30;;;;;;5002166;28;19993;-56
2022/05/05 17:20:03;;;;;;;;;;;21.90;56.30;;;;;;5000657;28;20024;-57
2022/05/05 17:22:29;;;;;;;;;;;21.90;56.20;;;;;;4983820;28;20024;-60
2022/05/05 17:24:54;;;;;;;;;;;21.90;56.20;;;;;;5001836;28;20017;-60
2022/05/05 17:27:20;;;;;;;;;;;21.90;56.20;;;;;;5002158;28;19925;-60
2022/05/05 17:29:46;;;;;;;;;;;21.90;56.10;;;;;;5001614;28;19914;-61
2022/05/05 17:32:12;;;;;;;;;;;21.90;56.10;;;;;;5002220;28;20233;-60
2022/05/05 17:34:37;;;;;;;;;;;21.90;56.10;;;;;;5000762;28;19922;-60
2022/05/05 17:37:04;;;;;;;;;;;21.90;56.10;;;;;;4994744;28;20036;-59
2022/05/05 17:39:30;;;;;;;;;;;21.90;56.10;;;;;;4970028;28;19925;-60
2022/05/05 17:41:55;;;;;;;;;;;21.90;56.10;;;;;;5002831;28;19917;-57
2022/05/05 17:52:33;;;;;;;;;;;21.90;56.00;;;;;;5015308;28;19925;-57
2022/05/05 17:54:58;;;;;;;;;;;21.90;55.90;;;;;;5006986;28;19917;-58
2022/05/05 17:57:24;;;;;;;;;;;21.90;55.90;;;;;;5005953;28;19918;-57
2022/05/05 17:59:50;;;;;;;;;;;21.90;55.90;;;;;;5003109;28;19940;-55
2022/05/05 18:02:16;;;;;;;;;;;21.80;55.70;;;;;;5016481;28;19917;-57
2022/05/05 18:04:41;;;;;;;;;;;21.90;55.70;;;;;;5001161;28;19929;-59
2022/05/05 18:07:06;;;;;;;;;;;21.80;55.70;;;;;;4999877;28;20288;-53
2022/05/05 18:09:32;;;;;;;;;;;21.80;55.90;;;;;;4997589;28;19972;-53
2022/05/05 18:11:59;;;;;;;;;;;21.90;56.40;;;;;;5015666;28;20448;-57
2022/05/05 18:14:24;;;;;;;;;;;22.00;55.90;;;;;;5008169;28;19920;-57
2022/05/05 18:16:50;;;;;;;;;;;22.00;55.80;;;;;;4998516;28;19922;-57
2022/05/05 18:19:17;;;;;;;;;;;22.00;55.60;;;;;;4997770;28;19922;-61
2022/05/05 18:21:42;;;;;;;;;;;22.10;55.60;;;;;;5025858;22;20317;-56
2022/05/05 18:24:08;;;;;;;;;;;22.10;55.50;;;;;;4997932;28;19918;-57
2022/05/05 18:26:33;;;;;;;;;;;22.10;55.40;;;;;;5000730;28;20016;-57
2022/05/05 18:28:59;;;;;;;;;;;22.10;55.30;;;;;;5000263;28;19914;-56
2022/05/05 18:31:24;;;;;;;;;;;22.10;55.30;;;;;;5001270;28;19967;-58
2022/05/05 18:33:50;;;;;;;;;;;22.10;55.20;;;;;;4999526;28;19914;-57
2022/05/05 18:36:17;;;;;;;;;;;22.10;55.10;;;;;;4998656;28;20097;-58
2022/05/05 18:38:43;;;;;;;;;;;22.10;55.00;;;;;;4999866;28;19920;-58
2022/05/05 18:41:09;;;;;;;;;;;22.10;55.00;;;;;;5000186;28;20298;-59
2022/05/05 18:43:35;;;;;;;;;;;22.10;55.00;;;;;;4999569;28;19924;-58
2022/05/05 18:46:01;;;;;;;;;;;22.10;54.80;;;;;;5000264;28;20034;-57
2022/05/05 18:48:27;;;;;;;;;;;22.20;54.90;;;;;;4999796;28;20785;-58